sensor_id;sensor_type;location;lat;lon;timestamp;P1;durP1;ratioP1;P2;durP2;ratioP2
80621;SDS011;69980;51.914;7.526;2024-03-02T00:02:24;3.63;;;2.67;;
80621;SDS011;69980;51.914;7.526;2024-03-02T00:04:50;3.72;;;2.60;;
80621;SDS011;69980;51.914;7.526;2024-03-02T00:07:16;4.35;;;2.72;;
80621;SDS011;69980;51.914;7.526;2024-03-02T00:09:42;3.92;;;2.85;;
80621;SDS011;69980;51.914;7.526;2024-03-02T00:12:07;4.47;;;2.80;;
80621;SDS011;69980;51.914;7.526;2024-03-02T00:14:33;4.10;;;2.85;;
80621;SDS011;69980;51.914;7.526;2024-03-02T00:16:58;4.00;;;2.58;;
80621;SDS011;69980;51.914;7.526;2024-03-02T00:19:24;4.03;;;2.67;;
80621;SDS011;69980;51.914;7.526;2024-03-02T00:21:49;5.10;;;2.80;;
80621;SDS011;69980;51.914;7.526;2024-03-02T00:24:21;4.45;;;2.67;;
80621;SDS011;69980;51.914;7.526;2024-03-02T00:26:48;3.63;;;2.22;;
80621;SDS011;69980;51.914;7.526;2024-03-02T00:29:15;4.53;;;2.50;;
80621;SDS011;69980;51.914;7.526;2024-03-02T00:31:41;3.60;;;2.70;;
80621;SDS011;69980;51.914;7.526;2024-03-02T00:34:06;4.95;;;2.60;;
80621;SDS011;69980;51.914;7.526;2024-03-02T00:36:31;4.65;;;2.42;;
80621;SDS011;69980;51.914;7.526;2024-03-02T00:38:57;4.18;;;2.70;;
80621;SDS011;69980;51.914;7.526;2024-03-02T00:41:31;4.43;;;2.63;;
80621;SDS011;69980;51.914;7.526;2024-03-02T00:43:58;4.85;;;2.90;;
80621;SDS011;69980;51.914;7.526;2024-03-02T00:46:33;3.90;;;2.47;;
80621;SDS011;69980;51.914;7.526;2024-03-02T00:49:00;3.72;;;2.63;;
80621;SDS011;69980;51.914;7.526;2024-03-02T00:51:27;3.30;;;2.30;;
80621;SDS011;69980;51.914;7.526;2024-03-02T00:53:54;4.78;;;2.90;;
80621;SDS011;69980;51.914;7.526;2024-03-02T00:56:20;4.57;;;2.75;;
80621;SDS011;69980;51.914;7.526;2024-03-02T00:58:46;4.38;;;2.55;;
80621;SDS011;69980;51.914;7.526;2024-03-02T01:01:11;4.68;;;2.50;;
80621;SDS011;69980;51.914;7.526;2024-03-02T01:03:37;3.80;;;2.67;;
80621;SDS011;69980;51.914;7.526;2024-03-02T01:06:02;4.40;;;2.60;;
80621;SDS011;69980;51.914;7.526;2024-03-02T01:08:28;4.07;;;2.63;;
80621;SDS011;69980;51.914;7.526;2024-03-02T01:10:54;4.18;;;2.50;;
80621;SDS011;69980;51.914;7.526;2024-03-02T01:13:19;3.90;;;2.65;;
80621;SDS011;69980;51.914;7.526;2024-03-02T01:15:44;3.95;;;2.58;;
80621;SDS011;69980;51.914;7.526;2024-03-02T01:18:10;3.95;;;3.03;;
80621;SDS011;69980;51.914;7.526;2024-03-02T01:20:35;5.43;;;2.88;;
80621;SDS011;69980;51.914;7.526;2024-03-02T01:23:00;3.90;;;2.63;;
80621;SDS011;69980;51.914;7.526;2024-03-02T01:25:26;4.40;;;2.88;;
80621;SDS011;69980;51.914;7.526;2024-03-02T01:27:51;4.05;;;2.95;;
80621;SDS011;69980;51.914;7.526;2024-03-02T01:30:16;5.05;;;2.90;;
80621;SDS011;69980;51.914;7.526;2024-03-02T01:32:41;4.20;;;2.92;;
80621;SDS011;69980;51.914;7.526;2024-03-02T01:35:07;4.28;;;2.83;;
80621;SDS011;69980;51.914;7.526;2024-03-02T01:37:32;3.83;;;2.63;;
80621;SDS011;69980;51.914;7.526;2024-03-02T01:39:58;4.30;;;2.70;;
80621;SDS011;69980;51.914;7.526;2024-03-02T01:42:23;3.60;;;2.60;;
80621;SDS011;69980;51.914;7.526;2024-03-02T01:44:48;6.38;;;2.85;;
80621;SDS011;69980;51.914;7.526;2024-03-02T01:47:14;4.22;;;2.83;;
80621;SDS011;69980;51.914;7.526;2024-03-02T01:49:39;3.63;;;2.53;;
80621;SDS011;69980;51.914;7.526;2024-03-02T01:52:04;4.90;;;2.97;;
80621;SDS011;69980;51.914;7.526;2024-03-02T01:54:30;5.78;;;2.88;;
80621;SDS011;69980;51.914;7.526;2024-03-02T01:56:55;3.90;;;2.80;;
80621;SDS011;69980;51.914;7.526;2024-03-02T01:59:20;4.35;;;3.08;;
80621;SDS011;69980;51.914;7.526;2024-03-02T02:01:45;4.15;;;3.00;;
80621;SDS011;69980;51.914;7.526;2024-03-02T02:04:11;4.35;;;2.85;;
80621;SDS011;69980;51.914;7.526;2024-03-02T02:06:36;4.28;;;2.92;;
80621;SDS011;69980;51.914;7.526;2024-03-02T02:09:01;3.65;;;2.67;;
80621;SDS011;69980;51.914;7.526;2024-03-02T02:11:27;4.10;;;2.60;;
80621;SDS011;69980;51.914;7.526;2024-03-02T02:13:52;5.25;;;3.10;;
80621;SDS011;69980;51.914;7.526;2024-03-02T02:16:17;5.32;;;2.97;;
80621;SDS011;69980;51.914;7.526;2024-03-02T02:18:43;4.50;;;2.80;;
80621;SDS011;69980;51.914;7.526;2024-03-02T02:21:08;3.80;;;2.83;;
80621;SDS011;69980;51.914;7.526;2024-03-02T02:23:33;4.30;;;3.10;;
80621;SDS011;69980;51.914;7.526;2024-03-02T02:25:58;5.00;;;3.05;;
80621;SDS011;69980;51.914;7.526;2024-03-02T02:28:24;4.88;;;2.92;;
80621;SDS011;69980;51.914;7.526;2024-03-02T02:30:49;4.43;;;2.78;;
80621;SDS011;69980;51.914;7.526;2024-03-02T02:33:14;4.53;;;2.78;;
80621;SDS011;69980;51.914;7.526;2024-03-02T02:35:40;5.70;;;3.13;;
80621;SDS011;69980;51.914;7.526;2024-03-02T02:38:05;4.97;;;3.28;;
80621;SDS011;69980;51.914;7.526;2024-03-02T02:40:30;4.95;;;2.80;;
80621;SDS011;69980;51.914;7.526;2024-03-02T02:42:56;4.82;;;2.97;;
80621;SDS011;69980;51.914;7.526;2024-03-02T02:45:22;5.60;;;2.70;;
80621;SDS011;69980;51.914;7.526;2024-03-02T02:47:47;4.65;;;3.03;;
80621;SDS011;69980;51.914;7.526;2024-03-02T02:50:12;4.40;;;2.97;;
80621;SDS011;69980;51.914;7.526;2024-03-02T02:52:38;4.47;;;2.90;;
80621;SDS011;69980;51.914;7.526;2024-03-02T02:55:05;4.07;;;2.88;;
80621;SDS011;69980;51.914;7.526;2024-03-02T02:57:35;4.63;;;2.88;;
80621;SDS011;69980;51.914;7.526;2024-03-02T03:00:04;4.28;;;2.88;;
80621;SDS011;69980;51.914;7.526;2024-03-02T03:02:32;4.38;;;2.88;;
80621;SDS011;69980;51.914;7.526;2024-03-02T03:04:57;3.70;;;2.67;;
80621;SDS011;69980;51.914;7.526;2024-03-02T03:07:22;4.75;;;2.90;;
80621;SDS011;69980;51.914;7.526;2024-03-02T03:09:48;4.30;;;2.78;;
80621;SDS011;69980;51.914;7.526;2024-03-02T03:12:13;5.68;;;2.72;;
80621;SDS011;69980;51.914;7.526;2024-03-02T03:14:40;5.05;;;2.90;;
80621;SDS011;69980;51.914;7.526;2024-03-02T03:17:05;4.50;;;2.67;;
80621;SDS011;69980;51.914;7.526;2024-03-02T03:19:31;4.18;;;3.00;;
80621;SDS011;69980;51.914;7.526;2024-03-02T03:21:56;4.80;;;3.05;;
80621;SDS011;69980;51.914;7.526;2024-03-02T03:24:21;4.10;;;2.72;;
80621;SDS011;69980;51.914;7.526;2024-03-02T03:26:46;5.25;;;3.15;;
80621;SDS011;69980;51.914;7.526;2024-03-02T03:29:12;4.57;;;3.15;;
80621;SDS011;69980;51.914;7.526;2024-03-02T03:31:37;4.30;;;2.88;;
80621;SDS011;69980;51.914;7.526;2024-03-02T03:34:02;5.28;;;3.30;;
80621;SDS011;69980;51.914;7.526;2024-03-02T03:36:28;4.80;;;2.78;;
80621;SDS011;69980;51.914;7.526;2024-03-02T03:38:53;4.80;;;2.75;;
80621;SDS011;69980;51.914;7.526;2024-03-02T03:41:18;4.43;;;3.13;;
80621;SDS011;69980;51.914;7.526;2024-03-02T03:43:43;4.93;;;2.38;;
80621;SDS011;69980;51.914;7.526;2024-03-02T03:46:09;4.00;;;2.60;;
80621;SDS011;69980;51.914;7.526;2024-03-02T03:48:34;3.35;;;2.28;;
80621;SDS011;69980;51.914;7.526;2024-03-02T03:50:59;4.40;;;2.63;;
80621;SDS011;69980;51.914;7.526;2024-03-02T03:53:24;3.80;;;2.25;;
80621;SDS011;69980;51.914;7.526;2024-03-02T03:55:50;4.40;;;2.58;;
80621;SDS011;69980;51.914;7.526;2024-03-02T03:58:15;4.53;;;2.80;;
80621;SDS011;69980;51.914;7.526;2024-03-02T04:00:40;4.43;;;2.53;;
80621;SDS011;69980;51.914;7.526;2024-03-02T04:03:06;4.88;;;2.70;;
80621;SDS011;69980;51.914;7.526;2024-03-02T04:05:31;5.18;;;2.83;;
80621;SDS011;69980;51.914;7.526;2024-03-02T04:07:56;4.80;;;2.70;;
80621;SDS011;69980;51.914;7.526;2024-03-02T04:10:21;4.03;;;2.72;;
80621;SDS011;69980;51.914;7.526;2024-03-02T04:12:47;4.30;;;3.00;;
80621;SDS011;69980;51.914;7.526;2024-03-02T04:15:14;5.75;;;2.85;;
80621;SDS011;69980;51.914;7.526;2024-03-02T04:17:39;4.38;;;2.80;;
80621;SDS011;69980;51.914;7.526;2024-03-02T04:20:05;5.13;;;2.80;;
80621;SDS011;69980;51.914;7.526;2024-03-02T04:22:32;4.90;;;2.80;;
80621;SDS011;69980;51.914;7.526;2024-03-02T04:24:58;4.20;;;2.55;;
80621;SDS011;69980;51.914;7.526;2024-03-02T04:27:23;4.88;;;3.05;;
80621;SDS011;69980;51.914;7.526;2024-03-02T04:29:48;4.60;;;2.60;;
80621;SDS011;69980;51.914;7.526;2024-03-02T04:32:14;5.60;;;2.70;;
80621;SDS011;69980;51.914;7.526;2024-03-02T04:34:39;4.35;;;2.60;;
80621;SDS011;69980;51.914;7.526;2024-03-02T04:37:04;5.10;;;2.60;;
80621;SDS011;69980;51.914;7.526;2024-03-02T04:39:30;3.80;;;2.45;;
80621;SDS011;69980;51.914;7.526;2024-03-02T04:41:55;5.03;;;2.90;;
80621;SDS011;69980;51.914;7.526;2024-03-02T04:44:21;3.55;;;2.30;;
80621;SDS011;69980;51.914;7.526;2024-03-02T04:46:46;4.85;;;2.75;;
80621;SDS011;69980;51.914;7.526;2024-03-02T04:49:11;4.72;;;2.60;;
80621;SDS011;69980;51.914;7.526;2024-03-02T04:51:37;3.80;;;2.40;;
80621;SDS011;69980;51.914;7.526;2024-03-02T04:54:02;5.00;;;2.63;;
80621;SDS011;69980;51.914;7.526;2024-03-02T04:56:27;3.75;;;2.45;;
80621;SDS011;69980;51.914;7.526;2024-03-02T04:58:52;3.45;;;2.17;;
80621;SDS011;69980;51.914;7.526;2024-03-02T05:01:18;4.05;;;2.30;;
80621;SDS011;69980;51.914;7.526;2024-03-02T05:03:43;4.32;;;2.50;;
80621;SDS011;69980;51.914;7.526;2024-03-02T05:06:08;3.90;;;2.63;;
80621;SDS011;69980;51.914;7.526;2024-03-02T05:08:34;4.13;;;2.40;;
80621;SDS011;69980;51.914;7.526;2024-03-02T05:10:59;3.60;;;2.22;;
80621;SDS011;69980;51.914;7.526;2024-03-02T05:13:24;3.90;;;2.47;;
80621;SDS011;69980;51.914;7.526;2024-03-02T05:15:49;4.00;;;2.45;;
80621;SDS011;69980;51.914;7.526;2024-03-02T05:18:15;5.40;;;2.65;;
80621;SDS011;69980;51.914;7.526;2024-03-02T05:20:40;4.40;;;2.42;;
80621;SDS011;69980;51.914;7.526;2024-03-02T05:23:05;3.67;;;2.35;;
80621;SDS011;69980;51.914;7.526;2024-03-02T05:25:31;3.67;;;2.70;;
80621;SDS011;69980;51.914;7.526;2024-03-02T05:27:56;3.72;;;2.25;;
80621;SDS011;69980;51.914;7.526;2024-03-02T05:30:21;3.60;;;2.20;;
80621;SDS011;69980;51.914;7.526;2024-03-02T05:32:46;4.90;;;2.40;;
80621;SDS011;69980;51.914;7.526;2024-03-02T05:35:12;4.22;;;2.45;;
80621;SDS011;69980;51.914;7.526;2024-03-02T05:37:37;4.13;;;2.50;;
80621;SDS011;69980;51.914;7.526;2024-03-02T05:40:02;4.15;;;2.30;;
80621;SDS011;69980;51.914;7.526;2024-03-02T05:42:28;3.80;;;2.20;;
80621;SDS011;69980;51.914;7.526;2024-03-02T05:44:53;3.60;;;2.25;;
80621;SDS011;69980;51.914;7.526;2024-03-02T05:47:19;4.50;;;2.28;;
80621;SDS011;69980;51.914;7.526;2024-03-02T05:49:44;3.97;;;2.20;;
80621;SDS011;69980;51.914;7.526;2024-03-02T05:52:09;4.15;;;2.50;;
80621;SDS011;69980;51.914;7.526;2024-03-02T05:54:34;4.93;;;2.10;;
80621;SDS011;69980;51.914;7.526;2024-03-02T05:57:00;4.03;;;2.40;;
80621;SDS011;69980;51.914;7.526;2024-03-02T05:59:25;4.43;;;2.47;;
80621;SDS011;69980;51.914;7.526;2024-03-02T06:01:50;3.92;;;2.33;;
80621;SDS011;69980;51.914;7.526;2024-03-02T06:04:16;4.97;;;2.60;;
80621;SDS011;69980;51.914;7.526;2024-03-02T06:06:41;3.92;;;2.30;;
80621;SDS011;69980;51.914;7.526;2024-03-02T06:09:06;5.45;;;2.63;;
80621;SDS011;69980;51.914;7.526;2024-03-02T06:11:32;4.55;;;2.50;;
80621;SDS011;69980;51.914;7.526;2024-03-02T06:13:57;4.72;;;2.50;;
80621;SDS011;69980;51.914;7.526;2024-03-02T06:16:22;3.80;;;2.35;;
80621;SDS011;69980;51.914;7.526;2024-03-02T06:18:48;4.35;;;2.25;;
80621;SDS011;69980;51.914;7.526;2024-03-02T06:21:13;4.28;;;2.40;;
80621;SDS011;69980;51.914;7.526;2024-03-02T06:23:38;5.35;;;2.40;;
80621;SDS011;69980;51.914;7.526;2024-03-02T06:26:03;3.92;;;2.33;;
80621;SDS011;69980;51.914;7.526;2024-03-02T06:28:29;5.00;;;2.35;;
80621;SDS011;69980;51.914;7.526;2024-03-02T06:30:54;3.35;;;2.20;;
80621;SDS011;69980;51.914;7.526;2024-03-02T06:33:19;3.50;;;2.20;;
80621;SDS011;69980;51.914;7.526;2024-03-02T06:35:45;4.65;;;2.50;;
80621;SDS011;69980;51.914;7.526;2024-03-02T06:38:10;4.60;;;2.38;;
80621;SDS011;69980;51.914;7.526;2024-03-02T06:40:35;4.03;;;2.63;;
80621;SDS011;69980;51.914;7.526;2024-03-02T06:43:00;4.60;;;2.35;;
80621;SDS011;69980;51.914;7.526;2024-03-02T06:45:26;4.25;;;2.50;;
80621;SDS011;69980;51.914;7.526;2024-03-02T06:47:51;4.65;;;2.53;;
80621;SDS011;69980;51.914;7.526;2024-03-02T06:50:16;4.10;;;2.35;;
80621;SDS011;69980;51.914;7.526;2024-03-02T06:52:42;4.03;;;2.20;;
80621;SDS011;69980;51.914;7.526;2024-03-02T06:55:07;3.85;;;2.60;;
80621;SDS011;69980;51.914;7.526;2024-03-02T06:57:32;4.18;;;2.38;;
80621;SDS011;69980;51.914;7.526;2024-03-02T06:59:57;4.13;;;2.13;;
80621;SDS011;69980;51.914;7.526;2024-03-02T07:02:23;6.07;;;2.40;;
80621;SDS011;69980;51.914;7.526;2024-03-02T07:04:48;4.93;;;2.40;;
80621;SDS011;69980;51.914;7.526;2024-03-02T07:07:13;5.45;;;3.05;;
80621;SDS011;69980;51.914;7.526;2024-03-02T07:09:39;4.10;;;2.47;;
80621;SDS011;69980;51.914;7.526;2024-03-02T07:12:04;3.85;;;2.42;;
80621;SDS011;69980;51.914;7.526;2024-03-02T07:14:29;5.55;;;2.50;;
80621;SDS011;69980;51.914;7.526;2024-03-02T07:16:55;4.88;;;2.65;;
80621;SDS011;69980;51.914;7.526;2024-03-02T07:19:20;5.10;;;2.42;;
80621;SDS011;69980;51.914;7.526;2024-03-02T07:21:45;4.10;;;2.50;;
80621;SDS011;69980;51.914;7.526;2024-03-02T07:24:10;5.68;;;2.80;;
80621;SDS011;69980;51.914;7.526;2024-03-02T07:26:36;4.97;;;2.70;;
80621;SDS011;69980;51.914;7.526;2024-03-02T07:29:01;3.97;;;2.50;;
80621;SDS011;69980;51.914;7.526;2024-03-02T07:31:26;4.25;;;2.20;;
80621;SDS011;69980;51.914;7.526;2024-03-02T07:33:52;4.88;;;2.50;;
80621;SDS011;69980;51.914;7.526;2024-03-02T07:36:17;4.63;;;2.53;;
80621;SDS011;69980;51.914;7.526;2024-03-02T07:38:42;4.22;;;2.45;;
80621;SDS011;69980;51.914;7.526;2024-03-02T07:41:08;4.35;;;2.28;;
80621;SDS011;69980;51.914;7.526;2024-03-02T07:43:33;3.50;;;2.13;;
80621;SDS011;69980;51.914;7.526;2024-03-02T07:45:59;3.83;;;2.50;;
80621;SDS011;69980;51.914;7.526;2024-03-02T07:48:24;5.57;;;2.40;;
80621;SDS011;69980;51.914;7.526;2024-03-02T07:50:50;5.85;;;2.55;;
80621;SDS011;69980;51.914;7.526;2024-03-02T07:53:15;4.53;;;2.33;;
80621;SDS011;69980;51.914;7.526;2024-03-02T07:55:41;4.75;;;2.70;;
80621;SDS011;69980;51.914;7.526;2024-03-02T07:58:06;4.53;;;2.55;;
80621;SDS011;69980;51.914;7.526;2024-03-02T08:00:31;4.28;;;2.40;;
80621;SDS011;69980;51.914;7.526;2024-03-02T08:02:57;5.15;;;2.30;;
80621;SDS011;69980;51.914;7.526;2024-03-02T08:05:22;5.85;;;2.72;;
80621;SDS011;69980;51.914;7.526;2024-03-02T08:07:48;6.97;;;2.97;;
80621;SDS011;69980;51.914;7.526;2024-03-02T08:10:13;5.22;;;2.50;;
80621;SDS011;69980;51.914;7.526;2024-03-02T08:12:38;4.85;;;2.80;;
80621;SDS011;69980;51.914;7.526;2024-03-02T08:15:04;4.43;;;3.05;;
80621;SDS011;69980;51.914;7.526;2024-03-02T08:17:30;5.30;;;2.97;;
80621;SDS011;69980;51.914;7.526;2024-03-02T08:19:55;4.53;;;3.00;;
80621;SDS011;69980;51.914;7.526;2024-03-02T08:22:21;4.60;;;2.60;;
80621;SDS011;69980;51.914;7.526;2024-03-02T08:24:46;4.75;;;2.50;;
80621;SDS011;69980;51.914;7.526;2024-03-02T08:27:11;6.18;;;2.63;;
80621;SDS011;69980;51.914;7.526;2024-03-02T08:29:37;4.25;;;2.40;;
80621;SDS011;69980;51.914;7.526;2024-03-02T08:32:02;5.80;;;2.92;;
80621;SDS011;69980;51.914;7.526;2024-03-02T08:34:28;6.75;;;2.70;;
80621;SDS011;69980;51.914;7.526;2024-03-02T08:36:53;6.47;;;3.00;;
80621;SDS011;69980;51.914;7.526;2024-03-02T08:39:18;4.60;;;2.65;;
80621;SDS011;69980;51.914;7.526;2024-03-02T08:41:44;5.03;;;2.60;;
80621;SDS011;69980;51.914;7.526;2024-03-02T08:44:09;7.05;;;2.80;;
80621;SDS011;69980;51.914;7.526;2024-03-02T08:46:35;4.55;;;2.85;;
80621;SDS011;69980;51.914;7.526;2024-03-02T08:49:00;5.22;;;2.60;;
80621;SDS011;69980;51.914;7.526;2024-03-02T08:51:26;4.25;;;2.60;;
80621;SDS011;69980;51.914;7.526;2024-03-02T08:53:51;4.28;;;2.70;;
80621;SDS011;69980;51.914;7.526;2024-03-02T08:56:16;5.53;;;2.40;;
80621;SDS011;69980;51.914;7.526;2024-03-02T08:58:42;4.18;;;2.28;;
80621;SDS011;69980;51.914;7.526;2024-03-02T09:01:08;4.10;;;2.90;;
80621;SDS011;69980;51.914;7.526;2024-03-02T09:03:33;4.57;;;2.55;;
80621;SDS011;69980;51.914;7.526;2024-03-02T09:05:59;5.15;;;2.95;;
80621;SDS011;69980;51.914;7.526;2024-03-02T09:08:24;4.32;;;2.53;;
80621;SDS011;69980;51.914;7.526;2024-03-02T09:10:49;5.68;;;2.80;;
80621;SDS011;69980;51.914;7.526;2024-03-02T09:13:15;4.57;;;2.65;;
80621;SDS011;69980;51.914;7.526;2024-03-02T09:15:40;4.05;;;2.35;;
80621;SDS011;69980;51.914;7.526;2024-03-02T09:18:06;4.88;;;2.63;;
80621;SDS011;69980;51.914;7.526;2024-03-02T09:20:32;5.35;;;2.55;;
80621;SDS011;69980;51.914;7.526;2024-03-02T09:22:57;6.35;;;2.65;;
80621;SDS011;69980;51.914;7.526;2024-03-02T09:25:22;6.25;;;2.60;;
80621;SDS011;69980;51.914;7.526;2024-03-02T09:27:47;4.32;;;2.53;;
80621;SDS011;69980;51.914;7.526;2024-03-02T09:30:13;5.88;;;2.85;;
80621;SDS011;69980;51.914;7.526;2024-03-02T09:32:38;3.95;;;2.40;;
80621;SDS011;69980;51.914;7.526;2024-03-02T09:35:04;5.53;;;2.70;;
80621;SDS011;69980;51.914;7.526;2024-03-02T09:37:29;4.90;;;2.90;;
80621;SDS011;69980;51.914;7.526;2024-03-02T09:39:55;3.90;;;2.45;;
80621;SDS011;69980;51.914;7.526;2024-03-02T09:42:20;4.97;;;2.45;;
80621;SDS011;69980;51.914;7.526;2024-03-02T09:44:46;3.92;;;2.30;;
80621;SDS011;69980;51.914;7.526;2024-03-02T09:47:12;3.58;;;2.40;;
80621;SDS011;69980;51.914;7.526;2024-03-02T09:49:38;5.13;;;2.60;;
80621;SDS011;69980;51.914;7.526;2024-03-02T09:52:03;3.75;;;2.17;;
80621;SDS011;69980;51.914;7.526;2024-03-02T09:54:29;4.47;;;2.42;;
80621;SDS011;69980;51.914;7.526;2024-03-02T09:56:55;4.10;;;2.25;;
80621;SDS011;69980;51.914;7.526;2024-03-02T09:59:20;4.88;;;2.47;;
80621;SDS011;69980;51.914;7.526;2024-03-02T10:01:55;3.92;;;2.30;;
80621;SDS011;69980;51.914;7.526;2024-03-02T10:04:21;3.97;;;2.47;;
80621;SDS011;69980;51.914;7.526;2024-03-02T10:06:46;4.30;;;2.53;;
80621;SDS011;69980;51.914;7.526;2024-03-02T10:09:13;3.50;;;2.17;;
80621;SDS011;69980;51.914;7.526;2024-03-02T10:11:51;4.50;;;2.20;;
80621;SDS011;69980;51.914;7.526;2024-03-02T10:14:17;3.45;;;2.17;;
80621;SDS011;69980;51.914;7.526;2024-03-02T10:16:43;5.18;;;2.30;;
80621;SDS011;69980;51.914;7.526;2024-03-02T10:19:19;3.53;;;1.95;;
80621;SDS011;69980;51.914;7.526;2024-03-02T10:21:45;3.25;;;1.92;;
80621;SDS011;69980;51.914;7.526;2024-03-02T10:24:14;3.95;;;2.20;;
80621;SDS011;69980;51.914;7.526;2024-03-02T10:26:39;4.82;;;2.30;;
80621;SDS011;69980;51.914;7.526;2024-03-02T10:29:04;4.00;;;2.50;;
80621;SDS011;69980;51.914;7.526;2024-03-02T10:31:30;3.55;;;2.30;;
80621;SDS011;69980;51.914;7.526;2024-03-02T10:33:55;4.47;;;2.35;;
80621;SDS011;69980;51.914;7.526;2024-03-02T10:36:21;3.80;;;1.95;;
80621;SDS011;69980;51.914;7.526;2024-03-02T10:38:46;3.33;;;1.98;;
80621;SDS011;69980;51.914;7.526;2024-03-02T10:41:12;3.55;;;2.05;;
80621;SDS011;69980;51.914;7.526;2024-03-02T10:43:37;4.10;;;2.00;;
80621;SDS011;69980;51.914;7.526;2024-03-02T10:46:02;4.43;;;1.92;;
80621;SDS011;69980;51.914;7.526;2024-03-02T10:48:28;3.10;;;2.00;;
80621;SDS011;69980;51.914;7.526;2024-03-02T10:50:54;3.50;;;2.10;;
80621;SDS011;69980;51.914;7.526;2024-03-02T10:53:20;4.35;;;1.98;;
80621;SDS011;69980;51.914;7.526;2024-03-02T10:55:45;3.53;;;1.88;;
80621;SDS011;69980;51.914;7.526;2024-03-02T10:58:12;4.18;;;1.90;;
80621;SDS011;69980;51.914;7.526;2024-03-02T11:00:39;3.08;;;1.80;;
80621;SDS011;69980;51.914;7.526;2024-03-02T11:03:05;3.28;;;1.70;;
80621;SDS011;69980;51.914;7.526;2024-03-02T11:05:36;4.10;;;1.75;;
80621;SDS011;69980;51.914;7.526;2024-03-02T11:08:02;3.28;;;1.60;;
80621;SDS011;69980;51.914;7.526;2024-03-02T11:10:41;3.20;;;1.33;;
80621;SDS011;69980;51.914;7.526;2024-03-02T11:13:11;3.42;;;1.30;;
80621;SDS011;69980;51.914;7.526;2024-03-02T11:15:37;2.83;;;1.05;;
80621;SDS011;69980;51.914;7.526;2024-03-02T11:18:08;4.90;;;1.20;;
80621;SDS011;69980;51.914;7.526;2024-03-02T11:20:38;2.38;;;0.90;;
80621;SDS011;69980;51.914;7.526;2024-03-02T11:23:04;2.22;;;0.85;;
80621;SDS011;69980;51.914;7.526;2024-03-02T11:25:31;2.65;;;1.00;;
80621;SDS011;69980;51.914;7.526;2024-03-02T11:28:00;2.63;;;1.15;;
80621;SDS011;69980;51.914;7.526;2024-03-02T11:32:58;2.63;;;1.00;;
80621;SDS011;69980;51.914;7.526;2024-03-02T11:35:24;2.70;;;0.80;;
80621;SDS011;69980;51.914;7.526;2024-03-02T11:37:52;2.50;;;1.10;;
80621;SDS011;69980;51.914;7.526;2024-03-02T11:40:24;3.00;;;1.10;;
80621;SDS011;69980;51.914;7.526;2024-03-02T11:42:50;2.38;;;1.00;;
80621;SDS011;69980;51.914;7.526;2024-03-02T11:45:16;2.72;;;1.00;;
80621;SDS011;69980;51.914;7.526;2024-03-02T11:47:42;2.78;;;1.15;;
80621;SDS011;69980;51.914;7.526;2024-03-02T11:50:11;1.85;;;0.98;;
80621;SDS011;69980;51.914;7.526;2024-03-02T11:52:37;3.28;;;1.13;;
80621;SDS011;69980;51.914;7.526;2024-03-02T11:55:03;2.25;;;1.10;;
80621;SDS011;69980;51.914;7.526;2024-03-02T11:57:30;2.72;;;1.10;;
80621;SDS011;69980;51.914;7.526;2024-03-02T11:59:55;2.67;;;1.02;;
80621;SDS011;69980;51.914;7.526;2024-03-02T12:02:21;2.75;;;1.00;;
80621;SDS011;69980;51.914;7.526;2024-03-02T12:04:47;1.73;;;0.73;;
80621;SDS011;69980;51.914;7.526;2024-03-02T12:07:20;2.55;;;1.20;;
80621;SDS011;69980;51.914;7.526;2024-03-02T12:09:46;2.45;;;1.05;;
80621;SDS011;69980;51.914;7.526;2024-03-02T12:12:11;2.35;;;0.90;;
80621;SDS011;69980;51.914;7.526;2024-03-02T12:14:37;2.28;;;1.10;;
80621;SDS011;69980;51.914;7.526;2024-03-02T12:17:03;2.97;;;0.90;;
80621;SDS011;69980;51.914;7.526;2024-03-02T12:19:29;2.58;;;1.15;;
80621;SDS011;69980;51.914;7.526;2024-03-02T12:21:56;2.08;;;0.90;;
80621;SDS011;69980;51.914;7.526;2024-03-02T12:24:22;2.60;;;1.00;;
80621;SDS011;69980;51.914;7.526;2024-03-02T12:26:49;1.88;;;0.88;;
80621;SDS011;69980;51.914;7.526;2024-03-02T12:29:15;2.70;;;1.00;;
80621;SDS011;69980;51.914;7.526;2024-03-02T12:31:41;3.03;;;0.90;;
80621;SDS011;69980;51.914;7.526;2024-03-02T12:34:07;2.40;;;0.77;;
80621;SDS011;69980;51.914;7.526;2024-03-02T12:36:39;2.28;;;0.88;;
80621;SDS011;69980;51.914;7.526;2024-03-02T12:39:05;1.90;;;0.63;;
80621;SDS011;69980;51.914;7.526;2024-03-02T12:41:30;1.88;;;0.80;;
80621;SDS011;69980;51.914;7.526;2024-03-02T12:43:56;1.88;;;0.65;;
80621;SDS011;69980;51.914;7.526;2024-03-02T12:46:21;2.20;;;0.85;;
80621;SDS011;69980;51.914;7.526;2024-03-02T12:48:46;1.95;;;0.70;;
80621;SDS011;69980;51.914;7.526;2024-03-02T12:51:11;3.08;;;0.85;;
80621;SDS011;69980;51.914;7.526;2024-03-02T12:53:37;2.55;;;0.80;;
80621;SDS011;69980;51.914;7.526;2024-03-02T12:56:02;3.40;;;0.90;;
80621;SDS011;69980;51.914;7.526;2024-03-02T12:58:28;2.20;;;0.60;;
80621;SDS011;69980;51.914;7.526;2024-03-02T13:01:09;2.05;;;0.70;;
80621;SDS011;69980;51.914;7.526;2024-03-02T13:03:37;2.13;;;0.65;;
80621;SDS011;69980;51.914;7.526;2024-03-02T13:06:03;3.22;;;0.90;;
80621;SDS011;69980;51.914;7.526;2024-03-02T13:08:29;2.90;;;0.57;;
80621;SDS011;69980;51.914;7.526;2024-03-02T13:10:54;4.95;;;1.08;;
80621;SDS011;69980;51.914;7.526;2024-03-02T13:13:20;4.75;;;0.77;;
80621;SDS011;69980;51.914;7.526;2024-03-02T13:15:45;1.85;;;0.65;;
80621;SDS011;69980;51.914;7.526;2024-03-02T13:18:11;1.80;;;0.60;;
80621;SDS011;69980;51.914;7.526;2024-03-02T13:20:36;4.22;;;0.73;;
80621;SDS011;69980;51.914;7.526;2024-03-02T13:23:01;3.13;;;0.77;;
80621;SDS011;69980;51.914;7.526;2024-03-02T13:25:27;3.70;;;0.80;;
80621;SDS011;69980;51.914;7.526;2024-03-02T13:27:52;2.78;;;0.80;;
80621;SDS011;69980;51.914;7.526;2024-03-02T13:30:17;2.33;;;0.80;;
80621;SDS011;69980;51.914;7.526;2024-03-02T13:32:43;1.63;;;0.68;;
80621;SDS011;69980;51.914;7.526;2024-03-02T13:35:08;2.50;;;0.90;;
80621;SDS011;69980;51.914;7.526;2024-03-02T13:37:33;2.38;;;0.70;;
80621;SDS011;69980;51.914;7.526;2024-03-02T13:39:59;2.00;;;0.80;;
80621;SDS011;69980;51.914;7.526;2024-03-02T13:42:24;2.88;;;1.00;;
80621;SDS011;69980;51.914;7.526;2024-03-02T13:44:49;2.22;;;0.90;;
80621;SDS011;69980;51.914;7.526;2024-03-02T13:47:15;1.60;;;0.70;;
80621;SDS011;69980;51.914;7.526;2024-03-02T13:49:40;2.65;;;0.90;;
80621;SDS011;69980;51.914;7.526;2024-03-02T13:52:06;2.00;;;0.70;;
80621;SDS011;69980;51.914;7.526;2024-03-02T13:54:31;2.45;;;0.90;;
80621;SDS011;69980;51.914;7.526;2024-03-02T13:56:56;1.90;;;0.80;;
80621;SDS011;69980;51.914;7.526;2024-03-02T13:59:22;2.35;;;0.98;;
80621;SDS011;69980;51.914;7.526;2024-03-02T14:01:47;2.00;;;0.80;;
80621;SDS011;69980;51.914;7.526;2024-03-02T14:04:12;4.95;;;1.00;;
80621;SDS011;69980;51.914;7.526;2024-03-02T14:06:38;2.30;;;0.90;;
80621;SDS011;69980;51.914;7.526;2024-03-02T14:09:03;5.72;;;1.00;;
80621;SDS011;69980;51.914;7.526;2024-03-02T14:11:28;1.83;;;0.75;;
80621;SDS011;69980;51.914;7.526;2024-03-02T14:13:54;3.08;;;0.88;;
80621;SDS011;69980;51.914;7.526;2024-03-02T14:16:19;1.30;;;0.60;;
80621;SDS011;69980;51.914;7.526;2024-03-02T14:18:45;1.77;;;0.70;;
80621;SDS011;69980;51.914;7.526;2024-03-02T14:21:10;1.92;;;0.80;;
80621;SDS011;69980;51.914;7.526;2024-03-02T14:23:35;2.22;;;0.85;;
80621;SDS011;69980;51.914;7.526;2024-03-02T14:26:01;1.73;;;0.68;;
80621;SDS011;69980;51.914;7.526;2024-03-02T14:28:26;1.77;;;0.70;;
80621;SDS011;69980;51.914;7.526;2024-03-02T14:30:51;1.98;;;0.50;;
80621;SDS011;69980;51.914;7.526;2024-03-02T14:33:17;2.40;;;0.80;;
80621;SDS011;69980;51.914;7.526;2024-03-02T14:35:42;1.50;;;0.60;;
80621;SDS011;69980;51.914;7.526;2024-03-02T14:38:07;1.42;;;0.60;;
80621;SDS011;69980;51.914;7.526;2024-03-02T14:40:33;2.13;;;0.60;;
80621;SDS011;69980;51.914;7.526;2024-03-02T14:42:58;1.65;;;0.52;;